Bellville, TX

6:49 PM CST on December 24, 2014 (GMT -0600)
Piney Creek | Change Station
CLOSE
Current Station
Personal Weather Station
Location: Bellville, TX
Elevation: 336 ft
Nearby Weather Stations

Elev 336 ft 30.01 °N, 96.28 °W | Updated 4 minutes ago

Clear
Clear
45.5 °F
Feels Like 46 °F
N
0.0
Wind Variable Wind from WNW
Gusts 0.0 mph

Today
High -- | Low -- °F
--% Chance of Precip.
Yesterday
High -- | Low -- °F
Precip. -- in
7:18 AM 5:31 PM
Waxing Crescent, 12% visible
Pressure 30.10 in
Visibility 10.0 miles
Clouds Clear
Windchill 46 °F
Dew Point 34 °F
Humidity 65%
Rainfall 0.00 in
Snow Depth Not available.
UV 0.0 out of 12
Pollen 7.10 out of 12
Air Quality Not available.
Flu Activity Not available.
METAR K11R 250035Z AUTO 30003KT 10SM CLR 10/02 A3010 RMK AO2 T01040015

More Conditions Fewer Conditions

Pressure 30.10 in
Visibility 10.0 miles
Clouds Clear
Windchill 46 °F
Dew Point 34 °F
Humidity 65%
Rainfall 0.00 in
Snow Depth Not available.
UV 0.0 out of 12
Pollen 7.10 out of 12
Air Quality Not available.
Flu Activity Not available.
METAR K11R 250035Z AUTO 30003KT 10SM CLR 10/02 A3010 RMK AO2 T01040015

More Conditions Fewer Conditions

10-Day Weather Forecast

Almanac

Astronomy

Dec. 24, 2014 Rise Set
Actual Time
Civil Twilight
Nautical Twilight
Astronomical Twilight
Moon
Length of Visible Light
Length of Day
Tomorrow will be .
, % of the Moon is Illuminated

Today's Extremes

State Highs State Lows

Community

WunderPhotos

Upload Photos

1,780,194 photos uploaded!

WunderBlogs® & News

Nearby

Air Quality

  Air Quality AQ Index Pollutant
Not available.

Snow Depth

Station Depth Elevation

Earthquake Activity

City Distance Mag. Time & Date
Minimum magnitude displayed is 2.5.

Coastal Water Temperatures

Place Temperature

Nearby Weather Stations